Outing, Minnesota
Current Conditions -  °F | °C
As of 12:36 PM on Thursday 30 Oct 2014 (Local Time) from KXVG Reporting Station
Overcast Overcast  
Wind Chill: 34°   Ceiling: 2500
Heat Index: 39°   Visibility: 10mi
Dew Point: 32°   Wind: 8mph
Humidity: 75%   Direction: 320°NW
Pressure: 30.15"   Gusts: NA
Location:  46.82°N, 93.95°W
Report Text: KXVG 301736Z AUTO 32007KT 10SM OVC025 04/00 A3015 RMK AO2
Loading
Personal Weather Stations






























Interactive Weather Map
Tropical Storm Tracking
New forecast layout! Learn more

10-Day Weather Forecast

Advertisements
Track Severe Weather on mobile